Time;durP1;ratioP1;P1;durP2;ratioP2;P2;SDS_P1;SDS_P2;PMS_P1;PMS_P2;Temp;Humidity;BMP_temperature;BMP_pressure;BME280_temperature;BME280_humidity;BME280_pressure;Samples;Min_cycle;Max_cycle;Signal;HPM_P1;HPM_P2
2022/01/15 00:01:16;;;;;;;5.10;1.85;;;6.50;99.90;;;;;;5010889;28;19956;-77
2022/01/15 00:03:42;;;;;;;;;;;6.50;99.90;;;;;;4997809;28;20046;-77
2022/01/15 00:06:08;;;;;;;21.05;2.50;;;6.50;99.90;;;;;;5012963;28;19921;-77
2022/01/15 00:08:33;;;;;;;;;;;6.50;99.90;;;;;;4997731;28;20045;-77
2022/01/15 00:10:59;;;;;;;16.15;2.55;;;6.50;99.90;;;;;;5013537;28;19921;-77
2022/01/15 00:13:28;;;;;;;;;;;6.40;99.90;;;;;;4996852;28;20054;-77
2022/01/15 00:16:05;;;;;;;11.57;2.17;;;6.40;99.90;;;;;;5013314;28;19976;-77
2022/01/15 00:19:04;;;;;;;7.93;3.03;;;6.40;99.90;;;;;;4981992;28;20074;-77
2022/01/15 00:21:19;;;;;;;9.43;2.78;;;6.40;99.90;;;;;;4975437;28;20046;-77
2022/01/15 00:23:45;;;;;;;;;;;6.40;99.90;;;;;;4977821;28;20045;-77
2022/01/15 00:26:10;;;;;;;17.10;3.00;;;6.40;99.90;;;;;;4993154;28;20008;-77
2022/01/15 00:28:36;;;;;;;;;;;6.40;99.90;;;;;;4977470;28;20049;-78
2022/01/15 00:31:01;;;;;;;13.40;2.90;;;6.30;99.90;;;;;;4990705;28;19921;-78
2022/01/15 00:33:29;;;;;;;;;;;6.30;99.90;;;;;;4996910;28;20107;-78
2022/01/15 00:35:56;;;;;;;13.40;2.70;;;6.30;99.90;;;;;;5012026;28;20020;-78
2022/01/15 00:38:21;;;;;;;12.55;2.80;;;6.30;99.90;;;;;;4996228;28;20054;-78
2022/01/15 00:40:47;;;;;;;;;;;6.30;99.90;;;;;;4994971;28;20045;-78
2022/01/15 00:43:12;;;;;;;9.90;2.33;;;6.20;99.90;;;;;;5012144;28;19921;-78
2022/01/15 00:45:38;;;;;;;;;;;6.20;99.90;;;;;;4994987;28;20054;-78
2022/01/15 00:48:04;;;;;;;9.98;2.20;;;6.20;99.90;;;;;;4995962;28;19948;-77
2022/01/15 00:50:30;;;;;;;;;;;6.20;99.90;;;;;;4996337;28;20148;-77
2022/01/15 00:52:55;;;;;;;7.95;2.05;;;6.20;99.90;;;;;;5012693;28;19930;-77
2022/01/15 00:55:21;;;;;;;;;;;6.20;99.90;;;;;;5013721;28;20459;-77
2022/01/15 00:57:46;;;;;;;7.53;2.00;;;6.20;99.90;;;;;;4995862;28;19921;-77
2022/01/15 01:00:17;;;;;;;;;;;6.20;99.90;;;;;;4996166;28;20038;-77
2022/01/15 01:02:43;;;;;;;9.55;2.00;;;6.20;99.90;;;;;;5013302;28;19952;-77
2022/01/15 01:05:10;;;;;;;12.15;2.35;;;6.20;99.90;;;;;;4995829;28;20103;-77
2022/01/15 01:07:35;;;;;;;15.25;2.40;;;6.20;99.90;;;;;;4996073;28;20053;-77
2022/01/15 01:12:57;;;;;;;13.98;3.05;;;6.20;99.90;;;;;;4995980;28;19922;-77
2022/01/15 01:23:19;;;;;;;18.02;3.33;;;6.20;99.90;;;;;;4976253;28;20053;-77
2022/01/15 01:25:48;;;;;;;;;;;6.20;99.90;;;;;;4995594;28;20046;-77
2022/01/15 01:28:44;;;;;;;28.80;4.15;;;6.20;99.90;;;;;;5012728;28;20024;-77
2022/01/15 01:31:26;;;;;;;16.67;3.30;;;6.20;99.90;;;;;;4983851;28;20081;-76
2022/01/15 01:33:55;;;;;;;14.15;3.50;;;6.10;99.90;;;;;;4993692;28;20046;-77
2022/01/15 01:36:37;;;;;;;15.85;3.47;;;6.20;99.90;;;;;;4976181;28;20042;-77
2022/01/15 01:39:09;;;;;;;18.00;2.90;;;6.20;99.90;;;;;;4976700;28;20054;-77
2022/01/15 01:41:37;;;;;;;11.52;2.83;;;6.20;99.90;;;;;;4976043;28;20058;-77
2022/01/15 01:44:04;;;;;;;11.25;3.30;;;6.20;99.90;;;;;;4975775;28;20046;-77
2022/01/15 01:46:46;;;;;;;6.25;2.45;;;6.20;99.90;;;;;;4988184;28;20057;-77
2022/01/15 01:49:13;;;;;;;7.13;2.83;;;6.10;99.90;;;;;;4995095;28;20096;-77
2022/01/15 01:51:39;;;;;;;12.25;3.00;;;6.10;99.90;;;;;;4995052;28;20046;-77
2022/01/15 01:54:08;;;;;;;;;;;6.10;99.90;;;;;;5013145;28;20054;-77
2022/01/15 01:56:34;;;;;;;6.82;2.90;;;6.10;99.90;;;;;;5011911;28;19925;-77
2022/01/15 01:59:00;;;;;;;4.85;2.50;;;6.10;99.90;;;;;;4994692;28;20088;-77
2022/01/15 02:01:25;;;;;;;;;;;6.10;99.90;;;;;;4985055;28;20062;-77
2022/01/15 02:03:51;;;;;;;4.35;2.30;;;6.10;99.90;;;;;;4991854;28;19972;-77
2022/01/15 02:06:18;;;;;;;;;;;6.10;99.90;;;;;;4991318;28;20042;-77
2022/01/15 02:08:44;;;;;;;4.00;2.00;;;6.10;99.90;;;;;;4995073;28;20373;-77
2022/01/15 02:11:10;;;;;;;3.75;2.05;;;6.10;99.90;;;;;;4995113;28;20045;-77
2022/01/15 02:13:38;;;;;;;;;;;6.10;99.90;;;;;;5012600;28;20500;-77
2022/01/15 02:16:04;;;;;;;13.27;3.28;;;6.10;99.90;;;;;;4995117;28;19959;-77
2022/01/15 02:18:30;;;;;;;;;;;6.10;99.90;;;;;;4995229;28;20078;-77
2022/01/15 02:23:32;;;;;;;4.65;2.22;;;6.10;99.90;;;;;;5009591;28;19921;-77
2022/01/15 02:23:47;;;;;;;6.38;2.42;;;6.10;99.90;;;;;;4994645;28;20537;-77
2022/01/15 02:26:37;;;;;;;6.93;2.70;;;6.00;99.90;;;;;;4994256;28;20046;-77
2022/01/15 02:29:12;;;;;;;9.57;2.50;;;6.00;99.90;;;;;;5011026;28;20497;-77
2022/01/15 02:31:38;;;;;;;7.10;2.85;;;6.00;99.90;;;;;;4995065;28;20049;-77
2022/01/15 02:34:05;;;;;;;;;;;6.00;99.90;;;;;;4994724;28;20057;-77
2022/01/15 02:36:37;;;;;;;7.20;2.53;;;6.00;99.90;;;;;;4976342;28;19968;-77
2022/01/15 02:39:06;;;;;;;7.63;2.50;;;6.00;99.90;;;;;;4992966;28;20046;-77
2022/01/15 02:41:35;;;;;;;;;;;6.00;99.90;;;;;;4994518;28;20065;-76
2022/01/15 02:44:04;;;;;;;14.35;3.22;;;5.90;99.90;;;;;;5011021;28;19921;-76
2022/01/15 02:49:04;;;;;;;25.35;4.03;;;5.90;99.90;;;;;;4992762;28;20050;-76
2022/01/15 02:51:31;;;;;;;17.92;3.50;;;6.00;99.90;;;;;;4994283;28;20501;-76
2022/01/15 02:53:57;;;;;;;16.25;3.40;;;6.00;99.90;;;;;;4994925;28;20101;-76
2022/01/15 02:56:33;;;;;;;;;;;5.90;99.90;;;;;;4994151;28;20053;-76
2022/01/15 02:59:00;;;;;;;26.67;3.90;;;5.90;99.90;;;;;;5014236;28;19993;-76
2022/01/15 03:01:25;;;;;;;16.17;3.50;;;5.90;99.90;;;;;;4998069;28;20501;-76
2022/01/15 03:03:51;;;;;;;;;;;5.90;99.90;;;;;;4996329;28;20393;-76
2022/01/15 03:06:19;;;;;;;37.78;4.03;;;5.90;99.90;;;;;;5014455;28;19921;-76
2022/01/15 03:08:45;;;;;;;34.45;3.78;;;6.20;99.90;;;;;;4998474;28;20108;-76
2022/01/15 03:11:12;;;;;;;31.95;3.72;;;5.90;99.90;;;;;;4996957;28;20042;-76
2022/01/15 03:13:39;;;;;;;22.50;3.88;;;5.90;99.90;;;;;;4998107;28;20042;-77
2022/01/15 03:16:11;;;;;;;18.65;3.50;;;5.90;99.90;;;;;;4997589;28;20092;-77
2022/01/15 03:18:36;;;;;;;9.82;2.78;;;5.80;99.90;;;;;;4996231;28;20112;-77
2022/01/15 03:21:02;;;;;;;;;;;5.90;99.90;;;;;;4997976;28;20486;-76
2022/01/15 03:23:28;;;;;;;4.47;2.22;;;5.90;99.90;;;;;;5013453;28;19948;-76
2022/01/15 03:25:53;;;;;;;;;;;5.90;99.90;;;;;;4997912;28;20108;-77
2022/01/15 03:28:19;;;;;;;4.20;1.90;;;5.90;99.90;;;;;;5013978;28;19968;-77
2022/01/15 03:30:44;;;;;;;;;;;5.90;99.90;;;;;;5015432;28;20374;-76
2022/01/15 03:33:10;;;;;;;3.70;1.83;;;5.90;99.90;;;;;;5026207;28;19925;-76
2022/01/15 03:35:39;;;;;;;;;;;5.80;99.90;;;;;;4997904;28;20054;-75
2022/01/15 03:38:05;;;;;;;4.13;2.13;;;5.80;99.90;;;;;;5013545;28;19925;-77
2022/01/15 03:40:32;;;;;;;3.60;1.80;;;5.80;99.90;;;;;;4997475;28;20046;-77
2022/01/15 03:42:58;;;;;;;3.88;1.98;;;5.90;99.90;;;;;;4997586;28;20064;-77
2022/01/15 03:45:24;;;;;;;;;;;5.80;99.90;;;;;;4997454;28;20509;-76
2022/01/15 03:47:50;;;;;;;3.20;1.67;;;5.80;99.90;;;;;;4995619;28;19989;-77
2022/01/15 03:50:16;;;;;;;;;;;5.80;99.90;;;;;;4997949;28;20053;-77
2022/01/15 03:52:42;;;;;;;4.13;2.00;;;5.80;99.90;;;;;;5013479;28;19921;-77
2022/01/15 03:55:10;;;;;;;4.50;1.70;;;5.80;99.90;;;;;;4997262;28;20297;-77
2022/01/15 03:57:36;;;;;;;3.53;1.65;;;5.80;99.90;;;;;;4997206;28;20050;-76
2022/01/15 04:00:24;;;;;;;;;;;5.70;99.90;;;;;;4997568;28;20497;-76
2022/01/15 04:02:50;;;;;;;2.20;1.20;;;5.70;99.90;;;;;;5008965;28;19976;-77
2022/01/15 04:05:15;;;;;;;;;;;5.70;99.90;;;;;;4977609;28;20046;-78
2022/01/15 04:07:41;;;;;;;3.58;1.52;;;5.70;99.90;;;;;;4993990;28;20281;-76
2022/01/15 04:10:08;;;;;;;;;;;5.70;99.90;;;;;;4976883;28;20046;-76
2022/01/15 04:12:33;;;;;;;3.10;1.60;;;5.70;99.90;;;;;;4976875;28;19928;-76
2022/01/15 04:14:59;;;;;;;;;;;5.70;99.90;;;;;;4977957;28;20050;-76
2022/01/15 04:17:25;;;;;;;3.67;1.77;;;5.70;99.90;;;;;;4977219;28;19970;-76
2022/01/15 04:19:52;;;;;;;3.60;1.80;;;5.70;99.90;;;;;;4995025;28;20129;-76
2022/01/15 04:22:17;;;;;;;3.28;1.63;;;5.60;99.90;;;;;;4996752;28;20053;-76
2022/01/15 04:24:43;;;;;;;;;;;5.60;99.90;;;;;;4997618;28;20040;-76
2022/01/15 04:27:09;;;;;;;3.63;1.33;;;5.60;99.90;;;;;;4996048;28;19928;-76
2022/01/15 04:29:34;;;;;;;;;;;5.60;99.90;;;;;;4997040;28;20049;-76
2022/01/15 04:32:00;;;;;;;2.88;1.35;;;5.60;99.90;;;;;;4996923;28;19925;-76
2022/01/15 04:34:27;;;;;;;;;;;5.50;99.90;;;;;;4998760;28;20516;-76
2022/01/15 04:36:59;;;;;;;4.68;2.05;;;5.50;99.90;;;;;;5012687;28;20012;-76
2022/01/15 04:39:25;;;;;;;6.30;1.98;;;5.50;99.90;;;;;;4995998;28;20089;-76
2022/01/15 04:41:50;;;;;;;;;;;5.50;99.90;;;;;;4996442;28;20046;-76
2022/01/15 04:44:16;;;;;;;11.10;2.30;;;5.50;99.90;;;;;;5010482;28;20288;-76
2022/01/15 04:46:42;;;;;;;;;;;5.50;99.90;;;;;;4997005;28;20042;-76
2022/01/15 04:49:07;;;;;;;6.25;2.22;;;5.50;99.90;;;;;;5012121;28;20012;-76
2022/01/15 04:51:33;;;;;;;;;;;5.50;99.90;;;;;;4996683;28;20528;-76
2022/01/15 04:53:59;;;;;;;4.55;2.67;;;5.50;99.90;;;;;;4999988;28;19922;-76
2022/01/15 04:56:24;;;;;;;;;;;5.50;99.90;;;;;;4976151;28;20082;-76
2022/01/15 04:58:50;;;;;;;7.07;2.20;;;5.50;99.90;;;;;;4993773;28;19969;-76
2022/01/15 05:01:16;;;;;;;;;;;5.50;99.90;;;;;;4993234;28;20050;-76
2022/01/15 05:03:42;;;;;;;3.60;1.80;;;5.60;99.90;;;;;;4976270;28;19922;-77
2022/01/15 05:06:07;;;;;;;;;;;5.50;99.90;;;;;;4977467;28;20128;-77
2022/01/15 05:08:33;;;;;;;3.38;1.58;;;5.60;99.90;;;;;;4992611;28;19968;-77
2022/01/15 05:11:11;;;;;;;;;;;5.60;99.90;;;;;;4977840;28;20034;-77
2022/01/15 05:13:37;;;;;;;3.22;1.58;;;5.60;99.90;;;;;;4992599;28;20384;-77
2022/01/15 05:16:04;;;;;;;2.92;1.42;;;5.60;99.90;;;;;;4976003;28;20504;-77
2022/01/15 05:18:29;;;;;;;3.97;1.40;;;5.50;99.90;;;;;;4975939;28;20046;-77
2022/01/15 05:21:04;;;;;;;;;;;6.50;99.90;;;;;;4991087;28;20124;-77
2022/01/15 05:23:30;;;;;;;3.03;1.23;;;5.60;99.90;;;;;;5011307;28;19927;-77
2022/01/15 05:25:55;;;;;;;;;;;5.60;99.90;;;;;;5013497;28;20460;-77
2022/01/15 05:28:21;;;;;;;3.28;1.13;;;5.60;99.90;;;;;;5011981;28;19921;-77
2022/01/15 05:30:46;;;;;;;;;;;5.50;99.90;;;;;;4995565;28;20077;-77
2022/01/15 05:33:16;;;;;;;2.58;1.20;;;5.60;99.90;;;;;;4995381;28;19925;-77
2022/01/15 05:35:42;;;;;;;2.60;1.38;;;5.50;99.90;;;;;;4995257;28;20057;-77
2022/01/15 05:38:08;;;;;;;2.63;1.30;;;5.50;99.90;;;;;;5012121;28;20054;-76
2022/01/15 05:40:33;;;;;;;;;;;5.40;99.90;;;;;;4996171;28;20057;-77
2022/01/15 05:42:59;;;;;;;3.00;1.08;;;5.40;99.90;;;;;;5011941;28;19921;-77
2022/01/15 05:45:24;;;;;;;;;;;5.90;99.90;;;;;;4995027;28;20049;-77
2022/01/15 05:47:51;;;;;;;2.08;1.10;;;5.50;99.90;;;;;;5012898;28;20007;-77
2022/01/15 05:50:16;;;;;;;2.08;1.10;;;5.50;99.90;;;;;;4994956;28;20420;-77
2022/01/15 05:52:42;;;;;;;;;;;5.50;99.90;;;;;;4995477;28;20050;-77
2022/01/15 05:55:08;;;;;;;2.75;1.23;;;5.40;99.90;;;;;;4995206;28;19924;-77
2022/01/15 05:57:36;;;;;;;;;;;5.40;99.90;;;;;;4995585;28;20453;-77
2022/01/15 06:00:04;;;;;;;1.88;0.98;;;5.40;99.90;;;;;;4987771;28;19922;-77
2022/01/15 06:02:30;;;;;;;2.67;1.23;;;5.50;99.90;;;;;;4975300;28;20085;-77
2022/01/15 06:04:56;;;;;;;;;;;5.40;99.90;;;;;;4975797;28;20077;-77
2022/01/15 06:07:21;;;;;;;2.55;1.23;;;5.40;99.90;;;;;;4991367;28;19922;-77
2022/01/15 06:09:47;;;;;;;;;;;5.40;99.90;;;;;;4977353;28;20038;-77
2022/01/15 06:12:12;;;;;;;2.75;1.17;;;5.40;99.90;;;;;;4991179;28;20690;-77
2022/01/15 06:14:41;;;;;;;;;;;5.40;99.90;;;;;;4975780;28;20051;-77
2022/01/15 06:17:08;;;;;;;2.75;1.42;;;6.40;99.90;;;;;;5010524;28;19921;-77
2022/01/15 06:19:37;;;;;;;4.60;1.73;;;5.40;99.90;;;;;;4994720;28;20129;-77
2022/01/15 06:22:03;;;;;;;3.40;1.73;;;5.30;99.90;;;;;;4995080;28;20088;-77
2022/01/15 06:24:29;;;;;;;3.33;1.50;;;6.30;99.90;;;;;;4992941;28;20041;-77
2022/01/15 06:26:56;;;;;;;;;;;5.30;99.90;;;;;;4995005;28;20041;-77
2022/01/15 06:29:22;;;;;;;3.45;1.58;;;5.40;99.90;;;;;;5011080;28;20007;-77
2022/01/15 06:31:47;;;;;;;;;;;5.40;99.90;;;;;;4995771;28;20462;-76
2022/01/15 06:34:13;;;;;;;2.40;1.30;;;5.40;99.90;;;;;;5013855;28;19972;-77
2022/01/15 06:36:38;;;;;;;;;;;5.40;99.90;;;;;;4999454;28;20120;-77
2022/01/15 06:39:04;;;;;;;2.08;1.10;;;5.40;99.90;;;;;;5012583;28;19976;-76
2022/01/15 06:41:30;;;;;;;;;;;5.30;99.90;;;;;;4978730;28;20050;-77
2022/01/15 06:43:58;;;;;;;2.53;0.90;;;5.30;99.90;;;;;;4996957;28;19921;-76
2022/01/15 06:46:23;;;;;;;1.33;0.73;;;5.20;99.90;;;;;;4978591;28;20046;-77
2022/01/15 06:48:49;;;;;;;;;;;5.10;99.90;;;;;;4996607;28;20131;-77
2022/01/15 06:51:15;;;;;;;2.08;0.80;;;5.10;99.90;;;;;;4995970;28;20435;-77
2022/01/15 06:53:40;;;;;;;;;;;5.10;99.90;;;;;;4979390;28;20583;-77
2022/01/15 06:56:06;;;;;;;1.90;1.00;;;5.10;99.90;;;;;;4994776;28;19921;-77
2022/01/15 06:58:32;;;;;;;;;;;5.10;99.90;;;;;;4979226;28;20058;-77
2022/01/15 07:00:57;;;;;;;2.25;0.90;;;5.10;99.90;;;;;;4995829;28;19928;-77
2022/01/15 07:03:23;;;;;;;;;;;5.10;99.90;;;;;;4998150;28;20042;-77
2022/01/15 07:05:52;;;;;;;2.40;1.20;;;5.20;99.90;;;;;;5014536;28;19921;-77
2022/01/15 07:08:17;;;;;;;2.53;1.30;;;5.10;99.90;;;;;;4995715;28;20042;-77
2022/01/15 07:10:43;;;;;;;;;;;5.00;99.90;;;;;;4999100;28;20092;-77
2022/01/15 07:13:09;;;;;;;3.60;1.33;;;5.00;99.90;;;;;;5014209;28;20281;-77
2022/01/15 07:15:35;;;;;;;;;;;5.00;99.90;;;;;;4997743;28;20108;-77
2022/01/15 07:18:01;;;;;;;2.92;1.48;;;4.90;99.90;;;;;;5004264;28;19921;-77
2022/01/15 07:20:27;;;;;;;;;;;4.90;99.90;;;;;;4988666;28;20037;-77
2022/01/15 07:22:53;;;;;;;2.92;1.48;;;4.90;99.90;;;;;;4987479;28;20288;-77
2022/01/15 07:25:19;;;;;;;2.38;1.40;;;4.90;99.90;;;;;;5002946;28;20050;-77
2022/01/15 07:27:45;;;;;;;;;;;4.90;99.90;;;;;;4995725;28;20409;-77
2022/01/15 07:30:12;;;;;;;2.13;1.20;;;4.90;99.90;;;;;;5007065;28;19921;-77
2022/01/15 07:32:39;;;;;;;3.72;1.20;;;4.90;99.90;;;;;;4993457;28;20130;-77
2022/01/15 07:35:07;;;;;;;2.30;1.30;;;4.90;99.90;;;;;;4978153;28;20046;-77
2022/01/15 07:37:32;;;;;;;3.28;1.23;;;5.00;99.90;;;;;;4977542;28;20089;-77
2022/01/15 07:39:58;;;;;;;;;;;5.00;99.90;;;;;;4996639;28;20074;-78
2022/01/15 07:42:24;;;;;;;2.47;1.15;;;5.00;99.90;;;;;;4978086;28;19968;-77
2022/01/15 07:44:50;;;;;;;;;;;4.90;99.90;;;;;;4976667;28;20504;-76
2022/01/15 07:47:15;;;;;;;2.85;1.27;;;4.90;99.90;;;;;;4965665;28;19969;-77
2022/01/15 07:49:41;;;;;;;;;;;4.90;99.90;;;;;;4970818;28;20042;-77
2022/01/15 07:52:07;;;;;;;3.05;1.40;;;4.90;99.90;;;;;;4982147;28;19918;-78
2022/01/15 07:54:32;;;;;;;;;;;4.80;99.90;;;;;;4974322;28;20047;-78
2022/01/15 07:57:01;;;;;;;3.13;1.48;;;4.90;99.90;;;;;;4961799;28;19921;-78
2022/01/15 07:59:28;;;;;;;2.88;1.38;;;4.90;99.90;;;;;;4967332;28;20043;-78
2022/01/15 08:01:54;;;;;;;2.40;1.23;;;4.90;99.90;;;;;;4978042;28;20177;-78
2022/01/15 08:04:20;;;;;;;;;;;4.80;99.90;;;;;;4971137;28;20073;-78
2022/01/15 08:06:45;;;;;;;2.90;1.40;;;4.80;99.90;;;;;;4982482;28;20066;-77
2022/01/15 08:09:11;;;;;;;;;;;4.80;99.90;;;;;;4977622;28;20050;-78
2022/01/15 08:11:36;;;;;;;3.40;1.60;;;4.90;99.90;;;;;;4976865;28;20341;-78
2022/01/15 08:14:02;;;;;;;;;;;4.90;99.90;;;;;;4977552;28;20046;-79
2022/01/15 08:16:28;;;;;;;3.10;1.60;;;4.90;99.90;;;;;;4976714;28;19921;-77
2022/01/15 08:18:53;;;;;;;;;;;4.90;99.90;;;;;;4977063;28;20133;-79
2022/01/15 08:21:19;;;;;;;3.25;1.50;;;5.00;99.90;;;;;;4994624;28;19921;-77
2022/01/15 08:23:45;;;;;;;;;;;5.00;99.90;;;;;;4995059;28;20105;-78
2022/01/15 08:26:10;;;;;;;4.00;1.88;;;5.00;99.90;;;;;;4993732;28;19921;-79
2022/01/15 08:28:42;;;;;;;;;;;5.00;99.90;;;;;;4995412;28;20034;-75
2022/01/15 08:31:08;;;;;;;3.90;1.67;;;5.00;99.90;;;;;;4993898;28;19975;-79
2022/01/15 08:33:34;;;;;;;;;;;5.10;99.90;;;;;;4976467;28;20073;-86
2022/01/15 08:36:00;;;;;;;5.27;1.90;;;5.00;99.90;;;;;;4977211;28;20024;-82
2022/01/15 08:38:29;;;;;;;;;;;5.10;99.90;;;;;;4991615;28;20137;-86
2022/01/15 08:40:54;;;;;;;4.13;1.80;;;4.80;99.90;;;;;;5005436;28;20361;-86
2022/01/15 08:43:20;;;;;;;;;;;4.90;99.90;;;;;;4993562;28;20089;-81
2022/01/15 08:45:47;;;;;;;4.40;1.60;;;5.00;99.90;;;;;;4992889;28;19967;-80
2022/01/15 08:48:12;;;;;;;3.53;1.63;;;5.00;99.90;;;;;;4994012;28;20517;-78
2022/01/15 08:50:38;;;;;;;;;;;4.90;99.90;;;;;;4996073;28;20050;-81
2022/01/15 08:53:06;;;;;;;3.65;1.55;;;5.00;99.90;;;;;;5012005;28;20389;-77
2022/01/15 08:55:35;;;;;;;4.45;2.00;;;5.00;99.90;;;;;;4995021;28;20050;-79
2022/01/15 08:58:02;;;;;;;4.07;1.77;;;5.00;99.90;;;;;;4996113;28;20398;-77
2022/01/15 09:00:28;;;;;;;3.20;1.63;;;5.00;99.90;;;;;;4994859;28;20045;-74
2022/01/15 09:02:55;;;;;;;3.60;1.75;;;5.00;99.90;;;;;;5013305;28;20038;-77
2022/01/15 09:05:21;;;;;;;3.88;2.03;;;5.10;99.90;;;;;;4994988;28;20044;-80
2022/01/15 09:07:47;;;;;;;5.78;1.95;;;5.00;99.90;;;;;;4996049;28;20038;-76
2022/01/15 09:10:17;;;;;;;3.80;2.00;;;5.00;99.90;;;;;;5012481;28;20532;-81
2022/01/15 09:12:44;;;;;;;5.15;2.40;;;5.00;99.90;;;;;;4995579;28;20046;-79
2022/01/15 09:15:14;;;;;;;4.90;2.40;;;4.90;99.90;;;;;;4995030;28;20042;-80
2022/01/15 09:17:40;;;;;;;5.22;2.65;;;4.90;99.90;;;;;;4996316;28;20042;-74
2022/01/15 09:20:06;;;;;;;;;;;5.00;99.90;;;;;;4996843;28;20551;-76
2022/01/15 09:22:34;;;;;;;5.22;2.70;;;4.90;99.90;;;;;;5009042;28;19922;-78
2022/01/15 09:25:00;;;;;;;5.95;2.53;;;5.00;99.90;;;;;;5656211;23;21848;-79
2022/01/15 09:30:12;;;;;;;5.63;2.40;;;5.10;99.90;;;;;;4976879;28;20405;-76
2022/01/15 09:32:40;;;;;;;4.70;2.30;;;5.20;99.90;;;;;;4976325;28;20054;-85
2022/01/15 09:35:06;;;;;;;4.47;2.30;;;5.30;99.90;;;;;;4970169;28;20483;-79
2022/01/15 09:37:32;;;;;;;4.70;2.20;;;5.30;99.90;;;;;;4950097;28;20057;-78
2022/01/15 09:39:58;;;;;;;;;;;5.20;99.90;;;;;;4955780;28;20042;-79
2022/01/15 09:42:26;;;;;;;4.18;1.90;;;5.30;99.90;;;;;;4960217;28;19922;-79
2022/01/15 09:44:53;;;;;;;5.25;2.30;;;5.30;99.90;;;;;;4975619;28;20042;-79
2022/01/15 09:47:22;;;;;;;5.38;2.75;;;5.30;99.90;;;;;;4976055;28;20121;-79
2022/01/15 09:49:50;;;;;;;4.50;2.30;;;5.30;99.90;;;;;;4975848;28;20046;-78
2022/01/15 09:52:16;;;;;;;5.78;2.88;;;5.40;99.90;;;;;;5011109;28;20389;-78
2022/01/15 09:54:43;;;;;;;5.85;2.85;;;5.30;99.90;;;;;;5001280;28;20057;-79
2022/01/15 09:57:09;;;;;;;5.43;2.42;;;5.40;99.90;;;;;;4983013;28;20477;-77
2022/01/15 09:59:36;;;;;;;5.05;2.58;;;5.30;99.90;;;;;;4989695;28;20039;-77
2022/01/15 10:02:04;;;;;;;5.13;2.40;;;6.40;99.90;;;;;;4975421;28;20057;-77
2022/01/15 10:04:32;;;;;;;4.03;2.10;;;5.30;99.90;;;;;;4974524;28;20042;-77
2022/01/15 10:07:22;;;;;;;5.28;2.47;;;5.30;99.90;;;;;;4973431;28;20038;-81
2022/01/15 10:09:50;;;;;;;4.95;2.20;;;5.40;99.90;;;;;;4994672;28;20072;-77
2022/01/15 10:12:32;;;;;;;5.03;2.60;;;5.50;99.90;;;;;;4986100;28;20038;-78
2022/01/15 10:15:03;;;;;;;4.72;2.50;;;5.40;99.90;;;;;;4964611;28;20053;-80
2022/01/15 10:17:36;;;;;;;4.68;2.20;;;5.50;99.90;;;;;;4963827;28;20062;-78
2022/01/15 10:20:11;;;;;;;5.50;2.72;;;5.40;99.90;;;;;;4968593;28;20077;-79
2022/01/15 10:22:46;;;;;;;6.20;3.38;;;5.40;99.90;;;;;;4975097;28;20572;-76
2022/01/15 10:25:18;;;;;;;6.72;3.25;;;5.40;99.90;;;;;;4974691;28;20038;-79
2022/01/15 10:27:53;;;;;;;9.30;3.22;;;5.40;99.90;;;;;;4973431;28;20039;-81
2022/01/15 10:30:22;;;;;;;10.80;3.53;;;5.40;99.90;;;;;;4972458;28;20042;-80
2022/01/15 10:33:01;;;;;;;7.38;3.10;;;5.40;99.90;;;;;;4955742;28;20057;-77
2022/01/15 10:35:33;;;;;;;8.38;3.20;;;5.30;99.90;;;;;;4966988;28;20054;-78
2022/01/15 10:38:06;;;;;;;5.22;2.35;;;5.20;99.90;;;;;;4976801;28;20125;-82
2022/01/15 10:40:46;;;;;;;6.35;3.22;;;5.20;99.90;;;;;;4980562;28;20482;-78
2022/01/15 10:43:16;;;;;;;5.05;2.47;;;5.20;99.90;;;;;;5004651;28;20513;-75
2022/01/15 10:46:03;;;;;;;4.78;2.72;;;5.10;99.90;;;;;;4990042;28;20042;-77
2022/01/15 10:52:18;;;;;;;7.18;2.78;;;4.80;99.90;;;;;;5434035;23;20580;-77
2022/01/15 10:55:06;;;;;;;9.40;2.95;;;5.10;99.90;;;;;;4982509;28;20089;-79
2022/01/15 10:57:43;;;;;;;6.57;2.90;;;5.20;99.90;;;;;;4986718;28;20422;-78
2022/01/15 11:00:30;;;;;;;5.78;2.70;;;5.10;99.90;;;;;;4989171;28;20410;-82
2022/01/15 11:02:57;;;;;;;;;;;5.20;99.90;;;;;;4990833;28;20065;-77
2022/01/15 11:05:24;;;;;;;6.97;2.92;;;5.20;99.90;;;;;;4982898;28;19968;-79
2022/01/15 11:07:51;;;;;;;6.85;3.00;;;5.20;99.90;;;;;;4996488;28;20125;-77
2022/01/15 11:10:20;;;;;;;6.38;2.85;;;5.30;99.90;;;;;;5008592;28;20417;-85
2022/01/15 11:12:46;;;;;;;6.30;2.95;;;5.40;99.90;;;;;;4994070;28;20117;-86
2022/01/15 11:15:11;;;;;;;;;;;5.40;99.90;;;;;;4983497;28;20145;-83
2022/01/15 11:17:40;;;;;;;6.13;2.95;;;5.50;99.90;;;;;;4981366;28;19922;-82
2022/01/15 11:20:06;;;;;;;10.93;3.80;;;5.50;99.90;;;;;;5008558;28;20085;-81
2022/01/15 11:22:35;;;;;;;13.02;4.05;;;5.40;99.90;;;;;;4978909;28;20042;-76
2022/01/15 11:25:01;;;;;;;18.45;4.53;;;5.30;99.90;;;;;;4977218;28;20097;-76
2022/01/15 11:27:29;;;;;;;14.77;4.57;;;5.20;99.90;;;;;;4995443;28;20448;-74
2022/01/15 11:29:58;;;;;;;17.25;5.32;;;5.20;99.90;;;;;;4978390;28;20096;-77
2022/01/15 11:32:27;;;;;;;19.63;4.60;;;5.20;99.90;;;;;;4978487;28;20046;-81
2022/01/15 11:35:05;;;;;;;20.83;6.25;;;5.30;99.90;;;;;;4978093;28;20097;-76
2022/01/15 11:38:04;;;;;;;18.25;5.45;;;5.10;99.90;;;;;;4995596;28;20068;-81
2022/01/15 11:40:40;;;;;;;24.08;6.30;;;5.20;99.90;;;;;;4949942;28;20129;-76
2022/01/15 11:43:24;;;;;;;16.63;6.47;;;5.20;99.90;;;;;;4988308;28;20039;-82
2022/01/15 11:45:55;;;;;;;19.77;6.45;;;5.10;99.90;;;;;;4979627;28;20108;-83
2022/01/15 11:48:27;;;;;;;23.15;6.35;;;5.10;99.90;;;;;;4983936;28;20375;-88
2022/01/15 11:51:19;;;;;;;26.35;7.50;;;5.20;99.90;;;;;;5012288;28;20385;-94
2022/01/15 11:53:53;;;;;;;21.88;7.53;;;5.20;99.90;;;;;;4983435;28;20417;-86
2022/01/15 11:56:27;;;;;;;29.38;7.28;;;5.10;99.90;;;;;;4989575;28;20069;-80
2022/01/15 11:59:17;;;;;;;28.23;8.32;;;5.10;99.90;;;;;;4995879;28;20052;-80
2022/01/15 12:01:43;;;;;;;26.92;8.98;;;5.10;99.90;;;;;;4988925;28;20475;-80
2022/01/15 12:04:27;;;;;;;;;;;5.00;99.90;;;;;;4987849;28;20048;-78
2022/01/15 12:07:07;;;;;;;21.48;7.63;;;5.00;99.90;;;;;;4998148;28;19921;-77
2022/01/15 12:09:49;;;;;;;15.35;7.32;;;5.00;99.90;;;;;;4990562;28;20092;-80
2022/01/15 12:12:31;;;;;;;16.55;7.72;;;5.30;99.90;;;;;;4987283;28;20616;-80
2022/01/15 12:14:56;;;;;;;16.70;8.43;;;5.30;99.90;;;;;;4979991;28;20617;-80
2022/01/15 12:17:26;;;;;;;;;;;5.20;99.90;;;;;;4990120;28;20050;-80
2022/01/15 12:19:53;;;;;;;19.67;8.25;;;5.20;99.90;;;;;;4985292;28;19991;-83
2022/01/15 12:22:46;;;;;;;22.10;7.28;;;5.20;99.90;;;;;;4982551;28;20046;-76
2022/01/15 12:25:18;;;;;;;28.92;9.35;;;5.20;99.90;;;;;;4996103;28;20037;-75
2022/01/15 12:27:46;;;;;;;24.23;8.57;;;5.10;99.90;;;;;;5005527;28;20140;-75
2022/01/15 12:30:19;;;;;;;23.38;10.00;;;5.10;99.90;;;;;;4986685;28;20058;-79
2022/01/15 12:32:47;;;;;;;25.55;9.13;;;5.10;99.90;;;;;;4979847;28;20049;-77
2022/01/15 12:35:20;;;;;;;32.28;8.63;;;5.00;99.90;;;;;;4992284;28;20367;-79
2022/01/15 12:38:01;;;;;;;29.75;9.05;;;5.10;99.90;;;;;;4984776;28;20045;-78
2022/01/15 12:40:28;;;;;;;29.08;10.00;;;5.00;99.90;;;;;;4982058;28;20050;-78
2022/01/15 12:42:56;;;;;;;29.20;8.98;;;5.00;99.90;;;;;;4989233;28;20074;-77
2022/01/15 12:45:23;;;;;;;25.33;8.90;;;5.00;99.90;;;;;;4990895;28;20125;-78
2022/01/15 12:47:48;;;;;;;28.50;8.05;;;5.00;99.90;;;;;;4985077;28;20132;-78
2022/01/15 12:50:14;;;;;;;;;;;5.00;99.90;;;;;;4984230;28;20471;-78
2022/01/15 12:52:40;;;;;;;23.85;7.57;;;4.90;99.90;;;;;;4991783;28;19925;-79
2022/01/15 12:55:06;;;;;;;;;;;4.90;99.90;;;;;;4979547;28;20125;-78
2022/01/15 12:57:51;;;;;;;22.40;8.00;;;5.00;99.90;;;;;;4991302;28;20008;-79
2022/01/15 13:00:23;;;;;;;18.00;8.70;;;5.20;99.90;;;;;;4982969;28;20132;-79
2022/01/15 13:02:57;;;;;;;18.60;8.10;;;5.00;99.90;;;;;;4992745;28;20393;-79
2022/01/15 13:05:26;;;;;;;15.70;7.35;;;4.90;99.90;;;;;;4990521;28;20050;-78
2022/01/15 13:07:54;;;;;;;15.27;6.55;;;5.10;99.90;;;;;;4984693;28;20061;-77
2022/01/15 13:10:24;;;;;;;26.38;7.47;;;5.10;99.90;;;;;;4981739;28;20086;-78
2022/01/15 13:12:50;;;;;;;17.17;7.43;;;5.10;99.90;;;;;;4992556;28;20042;-78
2022/01/15 13:15:25;;;;;;;;;;;4.90;99.90;;;;;;4989299;28;20512;-78
2022/01/15 13:17:51;;;;;;;17.25;8.40;;;4.90;99.90;;;;;;4984953;28;19921;-76
2022/01/15 13:20:29;;;;;;;;;;;4.80;99.90;;;;;;4983644;28;20137;-76
2022/01/15 13:22:55;;;;;;;38.22;8.77;;;4.90;99.90;;;;;;4991321;28;19964;-78
2022/01/15 13:25:21;;;;;;;;;;;4.90;99.90;;;;;;4990843;28;20120;-78
2022/01/15 13:27:47;;;;;;;26.17;8.98;;;4.80;99.90;;;;;;4984434;28;19932;-79
2022/01/15 13:30:12;;;;;;;;;;;4.70;99.90;;;;;;4989982;28;20042;-77
2022/01/15 13:32:38;;;;;;;25.67;7.07;;;4.80;99.90;;;;;;4997913;28;19928;-81
2022/01/15 13:35:12;;;;;;;;;;;4.90;99.90;;;;;;5009002;28;20441;-85
2022/01/15 13:37:50;;;;;;;20.15;7.45;;;4.90;99.90;;;;;;4987654;28;19922;-78
2022/01/15 13:40:30;;;;;;;32.63;7.72;;;4.90;99.90;;;;;;4987371;28;20077;-79
2022/01/15 13:42:56;;;;;;;29.40;9.43;;;4.90;99.90;;;;;;4995423;28;20042;-77
2022/01/15 13:45:24;;;;;;;;;;;4.80;99.90;;;;;;5006172;28;20057;-79